Time;durP1;ratioP1;P1;durP2;ratioP2;P2;SDS_P1;SDS_P2;PMS_P1;PMS_P2;Temp;Humidity;BMP_temperature;BMP_pressure;BME280_temperature;BME280_humidity;BME280_pressure;Samples;Min_cycle;Max_cycle;Signal;HPM_P1;HPM_P2
2023/05/12 04:01:00;;;;;;;4.20;3.90;;;12.70;99.90;;;;;;5705604;23;20530;-69
2023/05/12 04:03:27;;;;;;;3.50;3.30;;;12.70;99.90;;;;;;4970091;28;20526;-69
2023/05/12 04:05:57;;;;;;;3.27;3.07;;;12.70;99.90;;;;;;4973379;28;20472;-69
2023/05/12 04:08:24;;;;;;;4.10;3.90;;;12.70;99.90;;;;;;4974628;28;20464;-69
2023/05/12 04:10:54;;;;;;;4.07;3.77;;;12.70;99.90;;;;;;4976715;28;20758;-69
2023/05/12 04:13:20;;;;;;;3.70;3.50;;;12.80;99.90;;;;;;4979379;28;20472;-69
2023/05/12 04:15:48;;;;;;;3.77;3.27;;;12.80;99.90;;;;;;4984126;28;20914;-69
2023/05/12 04:18:16;;;;;;;2.97;2.87;;;12.80;99.90;;;;;;4959467;28;20516;-69
2023/05/12 04:20:43;;;;;;;3.03;2.80;;;12.80;99.90;;;;;;4979523;28;20491;-69
2023/05/12 04:23:10;;;;;;;3.30;3.10;;;12.80;99.90;;;;;;4981161;28;20471;-69
2023/05/12 04:25:38;;;;;;;5.37;5.00;;;12.80;99.90;;;;;;4991022;23;20503;-70
2023/05/12 04:28:05;;;;;;;4.50;4.10;;;12.90;99.90;;;;;;4954639;28;20964;-70
2023/05/12 04:30:32;;;;;;;4.03;3.73;;;12.90;99.90;;;;;;4958868;28;20624;-70
2023/05/12 04:32:59;;;;;;;3.20;3.10;;;12.90;99.90;;;;;;4960159;28;20473;-70
2023/05/12 04:35:27;;;;;;;5.30;4.33;;;12.90;99.90;;;;;;4956405;28;20492;-70
2023/05/12 04:37:54;;;;;;;4.10;3.80;;;12.90;99.90;;;;;;4960937;28;20948;-70
2023/05/12 04:40:20;;;;;;;3.47;3.17;;;13.00;99.90;;;;;;4948291;28;20477;-70
2023/05/12 04:42:47;;;;;;;3.77;3.50;;;13.00;99.90;;;;;;4955341;28;20866;-70
2023/05/12 04:45:14;;;;;;;2.77;2.67;;;13.00;99.90;;;;;;4948347;28;20555;-70
2023/05/12 04:47:41;;;;;;;3.30;3.10;;;13.00;99.90;;;;;;4967511;28;20579;-70
2023/05/12 04:50:09;;;;;;;5.77;4.50;;;13.10;99.90;;;;;;4966668;28;20476;-70
2023/05/12 04:52:37;;;;;;;4.80;3.60;;;13.10;99.90;;;;;;4966442;28;20511;-70
2023/05/12 04:55:04;;;;;;;5.57;4.27;;;13.10;99.90;;;;;;4956417;28;20897;-70
2023/05/12 04:57:31;;;;;;;4.03;3.70;;;13.20;99.90;;;;;;4965986;28;20954;-70
2023/05/12 04:59:58;;;;;;;3.00;2.90;;;13.20;99.90;;;;;;4965373;28;20523;-70
2023/05/12 05:02:25;;;;;;;4.57;4.20;;;13.20;99.90;;;;;;4954648;29;20460;-70
2023/05/12 05:04:52;;;;;;;3.00;2.80;;;13.30;99.90;;;;;;4953604;28;20489;-70
2023/05/12 05:07:19;;;;;;;4.60;4.30;;;13.30;99.90;;;;;;4961887;28;20507;-70
2023/05/12 05:09:47;;;;;;;3.63;3.47;;;13.30;99.90;;;;;;4957573;28;20534;-70
2023/05/12 05:12:14;;;;;;;3.33;3.23;;;13.40;99.90;;;;;;4965443;28;20491;-70
2023/05/12 05:14:40;;;;;;;4.70;4.07;;;13.40;99.90;;;;;;4962125;28;20473;-70
2023/05/12 05:17:07;;;;;;;5.17;4.50;;;13.50;99.90;;;;;;4970600;28;20463;-70
2023/05/12 05:19:34;;;;;;;4.00;3.70;;;13.50;99.90;;;;;;4957460;28;20472;-70
2023/05/12 05:22:01;;;;;;;3.97;3.67;;;13.60;99.90;;;;;;4956188;28;20843;-70
2023/05/12 05:24:27;;;;;;;3.90;3.70;;;13.60;99.90;;;;;;4957563;28;20475;-70
2023/05/12 05:26:55;;;;;;;3.67;3.30;;;13.70;99.90;;;;;;4951652;28;20484;-70
2023/05/12 05:29:22;;;;;;;3.80;3.50;;;13.70;99.90;;;;;;4950011;28;20477;-70
2023/05/12 05:31:49;;;;;;;4.03;3.73;;;13.80;99.90;;;;;;4953202;29;20564;-71
2023/05/12 05:34:15;;;;;;;3.23;3.03;;;13.80;99.90;;;;;;4952844;29;20480;-71
2023/05/12 05:36:42;;;;;;;3.17;2.97;;;13.90;99.90;;;;;;4958421;28;20603;-71
2023/05/12 05:39:10;;;;;;;4.03;3.73;;;14.00;99.90;;;;;;4959055;28;20507;-71
2023/05/12 05:41:36;;;;;;;3.20;3.10;;;14.00;99.90;;;;;;4955656;28;20555;-72
2023/05/12 05:44:04;;;;;;;4.83;4.33;;;14.10;99.90;;;;;;4954622;28;20895;-72
2023/05/12 05:46:31;;;;;;;4.23;4.03;;;14.20;99.90;;;;;;4946790;28;20499;-72
2023/05/12 05:48:58;;;;;;;3.70;3.40;;;14.30;99.90;;;;;;4953030;28;20473;-72
2023/05/12 05:51:24;;;;;;;3.00;2.90;;;14.30;99.90;;;;;;4957413;28;20492;-72
2023/05/12 05:53:51;;;;;;;3.80;3.60;;;14.40;99.90;;;;;;4955168;28;20993;-72
2023/05/12 05:56:18;;;;;;;4.43;4.13;;;14.50;99.90;;;;;;4965596;28;20496;-71
2023/05/12 05:58:45;;;;;;;3.10;3.00;;;14.50;99.90;;;;;;4959192;28;20479;-71
2023/05/12 06:01:14;;;;;;;3.30;3.20;;;14.60;99.90;;;;;;4950731;28;20542;-72
2023/05/12 06:03:41;;;;;;;4.63;4.43;;;14.70;99.90;;;;;;4951878;28;20568;-72
2023/05/12 06:06:08;;;;;;;3.80;2.93;;;14.80;99.90;;;;;;4935390;28;20486;-72
2023/05/12 06:08:34;;;;;;;4.70;3.63;;;15.00;99.90;;;;;;4952427;28;20873;-72
2023/05/12 06:11:01;;;;;;;3.30;3.20;;;15.10;99.90;;;;;;4951378;28;20488;-72
2023/05/12 06:13:28;;;;;;;3.00;2.83;;;15.20;99.90;;;;;;4954095;28;20526;-71
2023/05/12 06:15:54;;;;;;;5.13;3.30;;;15.30;99.90;;;;;;4955435;28;20519;-71
2023/05/12 06:18:23;;;;;;;3.43;3.40;;;15.40;99.90;;;;;;4951301;28;20477;-71
2023/05/12 06:20:50;;;;;;;3.20;3.00;;;15.50;99.90;;;;;;4947770;28;20464;-71
2023/05/12 06:23:17;;;;;;;3.00;2.90;;;15.60;99.90;;;;;;4950861;28;20477;-71
2023/05/12 06:25:43;;;;;;;3.77;3.57;;;15.90;99.90;;;;;;4949720;28;20508;-72
2023/05/12 06:28:10;;;;;;;2.37;2.27;;;16.50;99.90;;;;;;4961234;28;20471;-71
2023/05/12 06:30:37;;;;;;;2.80;2.70;;;16.90;99.90;;;;;;4971038;28;20586;-71
2023/05/12 06:33:03;;;;;;;2.90;2.80;;;17.20;99.90;;;;;;4972182;28;20509;-71
2023/05/12 06:35:32;;;;;;;3.23;3.10;;;17.30;99.90;;;;;;4966158;28;20492;-71
2023/05/12 06:37:58;;;;;;;12.83;3.00;;;17.20;99.90;;;;;;4967772;28;20566;-71
2023/05/12 06:40:25;;;;;;;4.60;2.67;;;17.30;99.90;;;;;;4958797;28;20484;-71
2023/05/12 06:42:52;;;;;;;2.87;2.83;;;17.30;99.90;;;;;;4933387;29;20822;-73
2023/05/12 06:45:19;;;;;;;16.87;2.83;;;17.40;99.90;;;;;;4943365;28;20488;-73
2023/05/12 06:47:46;;;;;;;2.87;2.80;;;17.50;99.90;;;;;;4963359;28;20871;-72
2023/05/12 06:50:14;;;;;;;3.73;3.53;;;17.80;99.90;;;;;;4971757;28;20471;-72
2023/05/12 06:52:43;;;;;;;3.70;2.47;;;18.20;99.90;;;;;;4971210;28;20534;-72
2023/05/12 06:55:10;;;;;;;2.83;2.73;;;18.40;99.90;;;;;;4942450;28;20497;-72
2023/05/12 06:57:36;;;;;;;2.73;2.63;;;18.90;99.90;;;;;;4963939;28;20461;-72
2023/05/12 07:00:04;;;;;;;2.43;2.43;;;19.20;99.90;;;;;;4966530;28;20472;-73
2023/05/12 07:02:30;;;;;;;3.07;2.87;;;19.20;99.90;;;;;;4947444;28;20462;-73
2023/05/12 07:04:57;;;;;;;2.00;2.00;;;19.00;99.90;;;;;;4955799;28;20486;-72
2023/05/12 07:07:24;;;;;;;2.87;2.73;;;18.90;99.90;;;;;;4953210;28;20468;-72
2023/05/12 07:09:52;;;;;;;2.93;2.83;;;18.70;99.90;;;;;;4948680;28;20484;-73
2023/05/12 07:12:18;;;;;;;3.60;3.27;;;18.70;99.90;;;;;;4947977;28;20489;-73
2023/05/12 07:14:45;;;;;;;1.90;1.90;;;18.80;99.90;;;;;;4952459;28;20469;-73
2023/05/12 07:17:12;;;;;;;2.80;2.70;;;18.90;99.90;;;;;;4953974;28;20475;-72
2023/05/12 07:19:39;;;;;;;2.50;2.40;;;19.00;99.90;;;;;;4956279;28;20786;-73
2023/05/12 07:22:05;;;;;;;2.30;2.20;;;19.10;99.90;;;;;;4958996;28;20844;-73
2023/05/12 07:24:32;;;;;;;2.80;2.70;;;19.20;99.90;;;;;;4961121;28;20530;-73
2023/05/12 07:27:01;;;;;;;2.83;2.73;;;19.30;99.90;;;;;;4955779;28;20465;-73
2023/05/12 07:29:28;;;;;;;3.10;2.77;;;19.40;99.90;;;;;;4961797;28;20615;-71
2023/05/12 07:31:54;;;;;;;2.43;2.43;;;19.40;99.90;;;;;;4962408;28;20481;-71
2023/05/12 07:34:21;;;;;;;2.90;2.80;;;19.40;99.90;;;;;;4950871;29;20465;-71
2023/05/12 07:36:48;;;;;;;3.07;2.87;;;19.10;99.90;;;;;;4955689;29;20484;-72
2023/05/12 07:39:18;;;;;;;2.67;2.50;;;18.90;99.90;;;;;;4952279;28;20484;-72
2023/05/12 07:41:44;;;;;;;2.60;2.50;;;18.90;99.90;;;;;;4951775;28;20842;-72
2023/05/12 07:44:12;;;;;;;3.70;2.93;;;19.00;99.90;;;;;;4969510;28;20472;-72
2023/05/12 07:46:39;;;;;;;3.50;3.40;;;19.00;99.90;;;;;;4969081;28;20487;-72
2023/05/12 07:49:06;;;;;;;2.70;2.60;;;18.90;99.90;;;;;;4960793;28;20461;-72
2023/05/12 07:51:33;;;;;;;2.57;2.57;;;18.90;99.90;;;;;;4964522;28;20562;-72
2023/05/12 07:54:00;;;;;;;3.97;3.80;;;18.90;99.90;;;;;;4954439;28;20469;-72
2023/05/12 07:56:27;;;;;;;2.50;2.50;;;18.80;99.90;;;;;;4955899;28;20535;-72
2023/05/12 07:58:53;;;;;;;2.37;2.30;;;18.80;99.90;;;;;;4967337;28;20483;-72
2023/05/12 08:01:22;;;;;;;2.60;2.50;;;18.90;99.90;;;;;;4969729;28;20478;-72
2023/05/12 08:03:50;;;;;;;2.53;2.47;;;19.00;99.90;;;;;;4953920;28;20539;-72
2023/05/12 08:06:17;;;;;;;4.60;3.27;;;19.00;99.90;;;;;;4954214;28;20485;-74
2023/05/12 08:08:44;;;;;;;2.93;2.83;;;18.90;99.90;;;;;;4956181;28;20468;-72
2023/05/12 08:11:11;;;;;;;3.07;2.97;;;19.10;99.90;;;;;;4955631;28;21001;-72
2023/05/12 08:13:38;;;;;;;3.10;3.00;;;19.30;99.90;;;;;;4953210;28;20553;-71
2023/05/12 08:16:05;;;;;;;2.30;2.20;;;19.60;99.90;;;;;;4955731;28;20496;-71
2023/05/12 08:18:33;;;;;;;2.60;2.50;;;19.80;99.90;;;;;;4957217;28;20477;-71
2023/05/12 08:20:59;;;;;;;3.63;3.43;;;19.80;99.90;;;;;;4958093;28;20890;-71
2023/05/12 08:23:26;;;;;;;2.83;2.70;;;19.90;99.90;;;;;;4953317;28;20500;-71
2023/05/12 08:25:53;;;;;;;2.30;2.20;;;19.90;99.90;;;;;;4951959;28;20869;-71
2023/05/12 08:28:20;;;;;;;2.47;2.43;;;20.10;99.90;;;;;;4959144;28;20969;-72
2023/05/12 08:30:46;;;;;;;2.20;2.20;;;20.20;99.90;;;;;;4958478;28;20470;-71
2023/05/12 08:33:14;;;;;;;2.70;2.60;;;20.30;99.90;;;;;;4951952;28;20489;-71
2023/05/12 08:35:42;;;;;;;3.00;2.90;;;20.10;99.90;;;;;;4953625;28;20501;-71
2023/05/12 08:38:09;;;;;;;2.80;2.70;;;20.10;99.90;;;;;;4962909;28;20476;-71
2023/05/12 08:40:44;;;;;;;2.93;2.73;;;20.20;99.90;;;;;;4959240;28;20538;-71
2023/05/12 08:43:18;;;;;;;3.10;3.00;;;20.20;99.90;;;;;;4955229;28;20470;-72
2023/05/12 08:45:46;;;;;;;2.73;2.57;;;20.20;99.90;;;;;;4954241;28;20839;-71
2023/05/12 08:48:15;;;;;;;1.97;1.97;;;20.20;99.90;;;;;;4956063;28;20473;-71
2023/05/12 08:50:44;;;;;;;2.97;2.97;;;20.20;99.90;;;;;;4948401;28;20473;-71
2023/05/12 08:53:11;;;;;;;2.87;2.77;;;20.30;99.90;;;;;;4951686;28;20489;-71
2023/05/12 08:55:41;;;;;;;2.37;2.37;;;20.40;99.90;;;;;;4950954;28;20492;-71
2023/05/12 08:58:08;;;;;;;2.80;2.60;;;20.40;99.90;;;;;;4953107;28;20465;-71
2023/05/12 09:00:35;;;;;;;2.83;2.73;;;20.40;99.90;;;;;;4959437;28;20815;-71
2023/05/12 09:03:06;;;;;;;2.20;2.13;;;20.40;99.90;;;;;;4953870;29;20476;-71
2023/05/12 09:05:33;;;;;;;2.47;2.27;;;20.40;99.90;;;;;;4962480;28;20487;-71
2023/05/12 09:08:02;;;;;;;2.40;2.40;;;20.40;99.90;;;;;;4957290;28;20468;-71
2023/05/12 09:10:29;;;;;;;2.30;2.20;;;20.50;99.90;;;;;;4952903;29;20842;-72
2023/05/12 09:13:02;;;;;;;1.77;1.77;;;20.50;99.90;;;;;;4953531;29;20484;-72
2023/05/12 09:15:35;;;;;;;3.03;2.83;;;20.60;99.90;;;;;;4949495;28;20492;-73
2023/05/12 09:18:01;;;;;;;2.17;1.97;;;20.60;99.90;;;;;;4952854;28;20879;-72
2023/05/12 09:20:28;;;;;;;2.67;2.57;;;20.60;99.90;;;;;;4955648;28;21035;-73
2023/05/12 09:22:57;;;;;;;2.40;2.30;;;20.70;99.90;;;;;;4960387;28;20477;-72
2023/05/12 09:25:25;;;;;;;2.07;1.97;;;20.80;99.90;;;;;;4958823;28;20524;-72
2023/05/12 09:27:56;;;;;;;2.13;2.13;;;20.80;99.90;;;;;;4963128;28;20472;-72
2023/05/12 09:30:30;;;;;;;2.83;2.73;;;20.90;99.90;;;;;;4958414;28;21077;-72
2023/05/12 09:33:06;;;;;;;2.13;2.13;;;21.00;99.90;;;;;;4971260;28;20483;-72
2023/05/12 09:35:38;;;;;;;2.63;2.23;;;21.20;99.90;;;;;;4964939;28;20836;-71
2023/05/12 09:38:08;;;;;;;1.70;1.70;;;21.20;99.90;;;;;;4964490;28;20915;-72
2023/05/12 09:40:37;;;;;;;2.00;2.00;;;21.30;99.90;;;;;;4959061;28;20472;-71
2023/05/12 09:43:05;;;;;;;2.20;2.10;;;21.40;99.90;;;;;;4940400;28;20492;-71
2023/05/12 09:45:34;;;;;;;2.67;2.47;;;21.40;99.90;;;;;;4942048;28;20815;-71
2023/05/12 09:48:09;;;;;;;2.23;2.23;;;21.40;99.90;;;;;;4951450;28;20572;-72
2023/05/12 09:50:43;;;;;;;2.17;2.07;;;21.50;99.90;;;;;;4954300;28;20890;-73
2023/05/12 09:53:10;;;;;;;2.67;2.57;;;21.50;99.90;;;;;;4954166;29;20877;-72
2023/05/12 09:55:38;;;;;;;1.40;1.40;;;21.60;99.90;;;;;;4953580;28;20878;-72
2023/05/12 09:58:09;;;;;;;2.17;2.13;;;21.80;99.90;;;;;;4956860;28;20563;-73
2023/05/12 10:00:38;;;;;;;1.70;1.70;;;21.90;99.90;;;;;;4962526;28;20484;-72
2023/05/12 10:03:10;;;;;;;2.30;2.20;;;21.90;99.90;;;;;;4960982;28;21671;-73
2023/05/12 10:05:44;;;;;;;2.40;2.30;;;22.00;99.90;;;;;;4963639;28;20538;-73
2023/05/12 10:08:16;;;;;;;1.67;1.67;;;22.00;99.90;;;;;;4958094;28;20470;-71
2023/05/12 10:10:47;;;;;;;1.53;1.53;;;22.20;99.90;;;;;;4957068;28;20469;-71
2023/05/12 10:13:14;;;;;;;1.87;1.77;;;22.10;97.90;;;;;;4957881;28;21011;-71
2023/05/12 10:15:42;;;;;;;1.97;1.87;;;22.10;97.60;;;;;;4955514;28;20485;-72
2023/05/12 10:18:11;;;;;;;2.30;2.20;;;22.00;97.10;;;;;;4951128;28;20475;-73
2023/05/12 10:20:38;;;;;;;1.90;1.90;;;21.80;97.30;;;;;;4955184;28;21116;-72
2023/05/12 10:23:07;;;;;;;2.43;1.90;;;21.80;96.70;;;;;;4962049;28;20479;-73
2023/05/12 10:25:34;;;;;;;2.00;1.90;;;21.70;96.10;;;;;;4966996;28;21046;-72
2023/05/12 10:28:03;;;;;;;1.37;1.23;;;21.70;96.10;;;;;;4964087;28;20465;-73
2023/05/12 10:30:31;;;;;;;2.27;2.17;;;21.70;97.00;;;;;;4972062;28;21188;-72
2023/05/12 10:32:58;;;;;;;2.13;2.10;;;21.80;96.00;;;;;;4966266;28;20551;-72
2023/05/12 10:35:32;;;;;;;1.70;1.70;;;22.10;95.70;;;;;;4963120;28;20486;-72
2023/05/12 10:38:02;;;;;;;1.50;1.50;;;22.30;94.30;;;;;;4972329;28;20482;-72
2023/05/12 10:40:29;;;;;;;4.73;1.60;;;22.40;94.80;;;;;;4958763;28;20469;-73
2023/05/12 10:42:59;;;;;;;1.80;1.70;;;22.40;93.60;;;;;;4936401;28;20468;-72
2023/05/12 10:45:28;;;;;;;2.00;1.90;;;22.40;93.80;;;;;;4959998;28;20995;-72
2023/05/12 10:48:05;;;;;;;2.30;2.23;;;22.40;93.60;;;;;;4952150;28;20481;-72
2023/05/12 10:50:32;;;;;;;2.13;2.03;;;22.40;93.20;;;;;;4937553;29;20924;-72
2023/05/12 10:52:59;;;;;;;2.20;2.10;;;22.40;92.70;;;;;;4952604;28;20487;-73
2023/05/12 10:55:34;;;;;;;1.60;1.60;;;22.30;91.90;;;;;;4957392;28;20499;-72
2023/05/12 10:58:06;;;;;;;1.73;1.73;;;22.40;91.80;;;;;;4952785;29;20479;-72
2023/05/12 11:00:44;;;;;;;2.13;2.03;;;22.30;91.30;;;;;;4960206;28;20471;-72
2023/05/12 11:03:15;;;;;;;1.57;1.57;;;22.40;90.10;;;;;;4963819;28;20533;-72
2023/05/12 11:05:42;;;;;;;1.50;1.50;;;22.50;87.40;;;;;;4951596;28;20491;-73
2023/05/12 11:08:09;;;;;;;1.80;1.80;;;22.60;87.60;;;;;;4960428;28;20533;-73
2023/05/12 11:10:36;;;;;;;1.53;1.53;;;22.60;88.20;;;;;;4952011;29;20817;-73
2023/05/12 11:13:03;;;;;;;1.50;1.50;;;22.60;87.00;;;;;;4951286;28;20482;-73
2023/05/12 11:15:30;;;;;;;1.10;1.10;;;22.60;84.50;;;;;;4951163;28;20589;-73
2023/05/12 11:18:01;;;;;;;1.97;1.97;;;22.70;84.90;;;;;;4967359;28;20514;-73
2023/05/12 11:20:28;;;;;;;1.53;1.43;;;22.70;87.80;;;;;;4952202;28;20478;-73
2023/05/12 11:22:55;;;;;;;1.20;1.20;;;22.80;85.90;;;;;;4948289;28;20458;-73
2023/05/12 11:25:22;;;;;;;1.30;1.30;;;22.80;84.70;;;;;;4958269;28;20533;-73
2023/05/12 11:27:49;;;;;;;1.43;1.43;;;22.80;82.90;;;;;;4952200;29;20471;-73
2023/05/12 11:30:16;;;;;;;1.93;1.83;;;22.80;81.40;;;;;;4959685;28;20470;-73
2023/05/12 11:32:43;;;;;;;2.40;2.30;;;22.80;79.50;;;;;;4951645;28;20498;-72
2023/05/12 11:35:14;;;;;;;1.90;1.80;;;22.90;81.40;;;;;;4946859;28;20916;-73
2023/05/12 11:37:42;;;;;;;1.50;1.50;;;23.00;82.20;;;;;;4971726;28;20569;-73
2023/05/12 11:40:16;;;;;;;1.90;1.90;;;23.00;81.00;;;;;;4956703;28;20497;-73
2023/05/12 11:42:47;;;;;;;1.50;1.50;;;23.10;80.30;;;;;;4940353;28;20591;-74
2023/05/12 11:45:25;;;;;;;1.47;1.47;;;23.00;81.10;;;;;;4950790;28;20489;-73
2023/05/12 11:47:52;;;;;;;2.23;2.23;;;22.80;82.00;;;;;;4957011;28;20558;-74
2023/05/12 11:50:24;;;;;;;1.50;1.50;;;22.70;81.80;;;;;;4962177;28;20564;-73
2023/05/12 11:52:52;;;;;;;1.53;1.53;;;22.80;80.40;;;;;;4959832;28;20495;-73
2023/05/12 11:55:25;;;;;;;1.63;1.63;;;22.90;79.40;;;;;;4949664;28;20976;-73
2023/05/12 11:57:59;;;;;;;1.70;1.70;;;23.00;80.00;;;;;;4955689;28;20468;-73
2023/05/12 12:00:33;;;;;;;1.73;1.73;;;23.10;79.90;;;;;;4968109;28;20474;-74
2023/05/12 12:03:11;;;;;;;1.40;1.40;;;23.00;79.90;;;;;;4965476;28;20464;-74
2023/05/12 12:05:40;;;;;;;1.67;1.67;;;23.00;79.60;;;;;;4950147;28;20490;-73
2023/05/12 12:08:08;;;;;;;2.00;1.90;;;23.00;77.30;;;;;;4964089;28;20481;-71
2023/05/12 12:10:35;;;;;;;1.50;1.50;;;22.90;80.00;;;;;;4966219;28;20467;-74
2023/05/12 12:13:02;;;;;;;1.90;1.80;;;22.70;77.50;;;;;;4945306;28;20489;-72
2023/05/12 12:15:29;;;;;;;1.30;1.30;;;22.60;79.40;;;;;;4967484;28;20568;-72
2023/05/12 12:17:56;;;;;;;1.73;1.73;;;22.80;79.10;;;;;;4955143;28;20482;-74
2023/05/12 12:20:23;;;;;;;1.60;1.50;;;23.00;78.20;;;;;;4953269;28;20471;-74
2023/05/12 12:22:52;;;;;;;1.67;1.60;;;23.20;77.20;;;;;;4948458;28;20468;-73
2023/05/12 12:25:19;;;;;;;1.50;1.50;;;23.00;75.60;;;;;;4962195;28;20484;-73
2023/05/12 12:27:47;;;;;;;1.73;1.70;;;22.80;77.30;;;;;;4960698;28;21036;-73
2023/05/12 12:30:15;;;;;;;1.50;1.50;;;22.70;78.60;;;;;;4966753;28;20462;-73
2023/05/12 12:32:43;;;;;;;1.43;1.33;;;22.60;79.30;;;;;;4975523;28;20464;-72
2023/05/12 12:35:10;;;;;;;1.53;1.50;;;22.60;78.70;;;;;;4973382;28;21044;-71
2023/05/12 12:37:37;;;;;;;1.90;1.80;;;22.60;78.90;;;;;;4971340;28;20474;-71
2023/05/12 12:40:08;;;;;;;1.80;1.80;;;22.70;79.30;;;;;;4953837;28;20467;-71
2023/05/12 12:42:36;;;;;;;1.70;1.40;;;22.90;78.60;;;;;;4936073;29;20485;-71
2023/05/12 12:45:03;;;;;;;2.60;1.73;;;22.90;78.40;;;;;;4935401;29;20988;-71
2023/05/12 12:47:30;;;;;;;1.50;1.40;;;22.90;76.60;;;;;;4944711;28;20466;-73
2023/05/12 12:49:57;;;;;;;2.00;2.00;;;23.00;75.50;;;;;;4966196;28;20470;-72
2023/05/12 12:52:24;;;;;;;2.30;2.23;;;23.00;76.30;;;;;;4974527;28;20471;-72
2023/05/12 12:54:51;;;;;;;1.43;1.43;;;23.00;76.80;;;;;;4972600;28;20538;-71
2023/05/12 12:57:20;;;;;;;1.93;1.93;;;22.80;77.50;;;;;;4970293;28;20473;-71
2023/05/12 12:59:47;;;;;;;1.70;1.70;;;22.80;78.00;;;;;;4965606;28;20465;-72
2023/05/12 13:02:14;;;;;;;1.50;1.40;;;22.90;78.00;;;;;;4973723;28;20478;-72
2023/05/12 13:04:41;;;;;;;1.50;1.50;;;22.80;75.90;;;;;;4973409;28;20506;-72
2023/05/12 13:07:07;;;;;;;1.43;1.43;;;22.80;76.60;;;;;;4968251;28;20470;-72
2023/05/12 13:09:34;;;;;;;4.40;2.43;;;22.90;74.60;;;;;;4965628;28;20477;-73
2023/05/12 13:12:01;;;;;;;1.77;1.73;;;22.90;75.20;;;;;;4973572;28;20473;-73
2023/05/12 13:14:29;;;;;;;2.57;2.10;;;23.00;74.80;;;;;;4954195;28;20500;-73
2023/05/12 13:16:56;;;;;;;1.30;1.30;;;23.00;77.00;;;;;;4939938;28;20495;-73
2023/05/12 13:19:22;;;;;;;4.37;1.43;;;23.10;76.60;;;;;;4965037;28;20546;-73
2023/05/12 13:21:49;;;;;;;5.93;2.00;;;23.20;77.80;;;;;;4968722;28;20559;-71
2023/05/12 13:24:16;;;;;;;1.70;1.60;;;23.30;75.70;;;;;;4968315;28;20463;-71
2023/05/12 13:26:42;;;;;;;2.03;2.03;;;23.40;75.80;;;;;;4965157;28;20498;-70
2023/05/12 13:29:09;;;;;;;1.57;1.57;;;23.40;74.40;;;;;;4960726;28;20479;-72
2023/05/12 13:31:40;;;;;;;3.40;2.20;;;23.40;73.40;;;;;;4958559;28;21040;-71
2023/05/12 13:34:06;;;;;;;1.57;1.57;;;23.40;72.00;;;;;;4963820;28;20589;-71
2023/05/12 13:36:34;;;;;;;1.20;1.20;;;23.40;75.10;;;;;;4965713;28;20495;-71
2023/05/12 13:39:01;;;;;;;1.60;1.50;;;23.50;75.00;;;;;;4957014;28;20472;-71
2023/05/12 13:41:28;;;;;;;1.53;1.53;;;23.60;74.10;;;;;;4962238;28;20566;-71
2023/05/12 13:43:55;;;;;;;1.90;1.90;;;23.50;74.10;;;;;;4969280;28;20474;-70
2023/05/12 13:46:23;;;;;;;1.80;1.80;;;23.50;74.00;;;;;;4966121;28;20503;-72
2023/05/12 13:48:51;;;;;;;1.80;1.80;;;23.40;71.60;;;;;;4960736;28;20547;-71
2023/05/12 13:51:18;;;;;;;1.90;1.90;;;23.40;71.60;;;;;;4961823;28;20480;-72
2023/05/12 13:53:45;;;;;;;1.97;1.87;;;23.50;72.20;;;;;;4975663;28;20894;-70
2023/05/12 13:56:12;;;;;;;1.70;1.70;;;23.50;73.10;;;;;;4964043;28;20494;-72
2023/05/12 13:58:38;;;;;;;2.03;2.03;;;23.50;72.70;;;;;;4957196;28;20587;-71
2023/05/12 14:01:05;;;;;;;1.77;1.77;;;23.60;75.40;;;;;;4969412;28;20463;-71
2023/05/12 14:03:32;;;;;;;1.63;1.63;;;23.50;72.20;;;;;;4966359;28;20474;-70
2023/05/12 14:06:00;;;;;;;2.03;1.90;;;23.30;73.70;;;;;;4959204;28;20513;-71
2023/05/12 14:08:27;;;;;;;2.13;2.13;;;23.20;73.10;;;;;;4955965;28;20471;-71
2023/05/12 14:10:53;;;;;;;1.53;1.53;;;23.20;72.70;;;;;;4962886;28;20468;-70
2023/05/12 14:13:20;;;;;;;1.80;1.70;;;23.30;72.60;;;;;;4964834;28;20459;-71
2023/05/12 14:15:47;;;;;;;1.67;1.67;;;23.30;73.00;;;;;;4964645;28;21063;-71
2023/05/12 14:18:14;;;;;;;1.87;1.87;;;23.40;72.40;;;;;;4959066;28;20466;-70
2023/05/12 14:20:40;;;;;;;1.77;1.67;;;23.50;73.40;;;;;;4965931;28;20570;-70
2023/05/12 14:23:09;;;;;;;1.60;1.50;;;23.50;71.40;;;;;;4966112;28;20455;-70
2023/05/12 14:25:35;;;;;;;1.80;1.80;;;23.40;72.50;;;;;;4957538;28;20500;-70
2023/05/12 14:28:02;;;;;;;1.60;1.60;;;23.20;72.40;;;;;;4958239;28;20471;-70
2023/05/12 14:30:29;;;;;;;1.10;1.10;;;23.10;72.20;;;;;;4966637;28;20466;-71
2023/05/12 14:32:56;;;;;;;1.37;1.37;;;23.10;71.40;;;;;;4964405;28;20466;-70
2023/05/12 14:35:26;;;;;;;1.90;1.90;;;23.20;71.80;;;;;;4961657;28;20657;-70
2023/05/12 14:37:52;;;;;;;1.60;1.60;;;23.30;71.70;;;;;;4954252;28;20573;-69
2023/05/12 14:40:21;;;;;;;1.50;1.50;;;23.30;71.50;;;;;;4954032;28;20477;-70
2023/05/12 14:42:48;;;;;;;1.20;1.20;;;23.40;71.30;;;;;;4946738;29;20499;-69
2023/05/12 14:45:14;;;;;;;1.70;1.70;;;23.40;71.70;;;;;;4954243;28;20483;-69
2023/05/12 14:47:41;;;;;;;1.60;1.60;;;23.60;71.10;;;;;;4956486;28;20578;-69
2023/05/12 14:50:08;;;;;;;1.80;1.70;;;23.70;71.00;;;;;;4951233;29;20471;-69
2023/05/12 14:52:37;;;;;;;2.03;2.03;;;23.70;70.40;;;;;;4955107;29;20463;-70
2023/05/12 14:55:04;;;;;;;1.83;1.83;;;23.80;70.70;;;;;;4951946;28;20578;-69
2023/05/12 14:57:34;;;;;;;1.80;1.73;;;23.70;70.50;;;;;;4957399;28;20459;-70
2023/05/12 15:00:01;;;;;;;1.83;1.77;;;23.70;71.50;;;;;;4973556;28;20502;-69
2023/05/12 15:02:28;;;;;;;1.80;1.80;;;23.70;69.10;;;;;;4959314;28;20524;-69
2023/05/12 15:04:55;;;;;;;2.10;1.90;;;23.60;69.10;;;;;;4960631;28;20491;-69
2023/05/12 15:07:22;;;;;;;1.63;1.63;;;23.60;70.60;;;;;;4952933;28;20534;-71
2023/05/12 15:09:48;;;;;;;1.23;1.23;;;23.50;68.90;;;;;;4958165;28;20554;-69
2023/05/12 15:12:15;;;;;;;1.30;1.30;;;23.60;69.60;;;;;;4954631;28;20479;-71
2023/05/12 15:14:43;;;;;;;1.20;1.20;;;23.60;70.50;;;;;;4957337;28;20483;-71
2023/05/12 15:17:10;;;;;;;1.57;1.57;;;23.50;71.20;;;;;;4972279;28;20953;-71
2023/05/12 15:19:36;;;;;;;2.00;1.90;;;23.40;70.40;;;;;;4973050;28;20848;-71
2023/05/12 15:22:03;;;;;;;1.33;1.33;;;23.50;70.10;;;;;;4969331;28;20563;-68
2023/05/12 15:24:30;;;;;;;2.07;2.00;;;23.30;69.10;;;;;;4960326;28;20462;-69
2023/05/12 15:26:57;;;;;;;1.60;1.57;;;23.40;69.30;;;;;;4953612;29;20534;-70
2023/05/12 15:29:23;;;;;;;1.30;1.30;;;23.50;70.80;;;;;;4953567;29;20479;-70
2023/05/12 15:31:52;;;;;;;1.37;1.27;;;23.60;69.30;;;;;;4961300;28;20538;-70
2023/05/12 15:34:18;;;;;;;1.63;1.63;;;23.70;69.10;;;;;;4964449;28;20489;-70
2023/05/12 15:36:47;;;;;;;2.07;2.00;;;23.60;68.40;;;;;;4976678;28;20891;-70
2023/05/12 15:39:14;;;;;;;1.30;1.30;;;23.50;68.10;;;;;;4975636;28;20475;-69
2023/05/12 15:41:41;;;;;;;1.60;1.50;;;23.60;68.10;;;;;;4961144;28;20474;-70
2023/05/12 15:44:08;;;;;;;1.73;1.67;;;23.70;67.70;;;;;;4960396;28;20523;-70
2023/05/12 15:46:35;;;;;;;1.90;1.87;;;23.80;67.60;;;;;;4975567;28;20486;-70
2023/05/12 15:49:03;;;;;;;1.90;1.60;;;23.80;68.50;;;;;;4976379;28;20471;-70
2023/05/12 15:51:32;;;;;;;1.93;1.73;;;23.90;70.00;;;;;;4967706;28;20472;-70
2023/05/12 15:53:59;;;;;;;1.47;1.47;;;23.90;69.70;;;;;;4937966;29;20587;-70
2023/05/12 15:56:26;;;;;;;1.57;1.57;;;23.70;68.80;;;;;;4974464;28;20813;-69
2023/05/12 15:58:52;;;;;;;1.57;1.57;;;23.60;68.80;;;;;;4975995;28;20467;-69
2023/05/12 16:01:19;;;;;;;1.73;1.73;;;23.50;71.00;;;;;;4979478;28;20819;-70
2023/05/12 16:03:47;;;;;;;1.77;1.77;;;23.60;69.00;;;;;;4971447;28;20565;-70
2023/05/12 16:06:15;;;;;;;1.80;1.70;;;23.70;68.60;;;;;;4976099;28;20490;-69
2023/05/12 16:08:42;;;;;;;1.23;1.23;;;23.80;68.00;;;;;;4975661;28;20471;-69
2023/05/12 16:11:09;;;;;;;1.73;1.73;;;23.80;68.40;;;;;;4972199;28;20609;-70
2023/05/12 16:13:36;;;;;;;1.67;1.67;;;23.90;71.00;;;;;;4966415;28;20503;-69
2023/05/12 16:16:04;;;;;;;2.10;2.10;;;23.90;71.20;;;;;;4963579;28;20494;-70
2023/05/12 16:18:30;;;;;;;1.80;1.70;;;23.80;70.90;;;;;;4978503;28;20469;-70
2023/05/12 16:20:58;;;;;;;1.37;1.37;;;23.80;70.80;;;;;;4977436;28;20527;-70
2023/05/12 16:23:30;;;;;;;1.90;1.90;;;23.50;71.20;;;;;;4975950;28;20472;-70
2023/05/12 16:25:58;;;;;;;1.43;1.33;;;23.30;72.90;;;;;;4966595;28;20496;-70
2023/05/12 16:28:24;;;;;;;2.20;2.10;;;23.00;72.40;;;;;;4975487;28;20999;-70
2023/05/12 16:30:51;;;;;;;1.90;1.90;;;22.90;73.80;;;;;;4967587;28;20514;-70
2023/05/12 16:33:18;;;;;;;1.80;1.70;;;22.70;74.10;;;;;;4963183;28;20473;-70
2023/05/12 16:35:45;;;;;;;2.23;2.13;;;22.50;73.70;;;;;;4969215;28;20500;-70
2023/05/12 16:38:12;;;;;;;2.53;2.00;;;22.40;74.00;;;;;;4975421;28;20460;-69
2023/05/12 16:40:40;;;;;;;2.00;2.00;;;22.30;74.70;;;;;;4960173;28;20585;-69
2023/05/12 16:43:07;;;;;;;2.20;2.10;;;22.20;75.20;;;;;;4966374;28;20480;-69
2023/05/12 16:45:34;;;;;;;3.40;2.70;;;22.20;75.30;;;;;;4959642;28;20538;-70
2023/05/12 16:48:01;;;;;;;1.90;1.80;;;22.30;75.90;;;;;;4961193;28;20472;-69
2023/05/12 16:50:27;;;;;;;1.67;1.57;;;22.30;75.70;;;;;;4956640;28;20459;-70